Time;durP1;ratioP1;P1;durP2;ratioP2;P2;SDS_P1;SDS_P2;PMS_P1;PMS_P2;Temp;Humidity;BMP_temperature;BMP_pressure;BME280_temperature;BME280_humidity;BME280_pressure;Samples;Min_cycle;Max_cycle;Signal;HPM_P1;HPM_P2
2022/12/27 00:01:32;;;;;;;;;;;;;;;13.03;56.02;99914.09;4356234;32;34054;-62
2022/12/27 00:04:00;;;;;;;;;;;;;;;13.00;56.40;99922.44;4354158;32;32898;-64
2022/12/27 00:06:27;;;;;;;;;;;;;;;13.04;56.43;99928.41;4356800;32;33787;-63
2022/12/27 00:08:54;;;;;;;;;;;;;;;13.24;56.02;99918.69;4354647;32;34667;-64
2022/12/27 00:11:23;;;;;;;;;;;;;;;13.44;55.44;99933.16;4354982;32;32279;-65
2022/12/27 00:13:50;;;;;;;;;;;;;;;13.55;55.28;99921.50;4356368;32;34489;-64
2022/12/27 00:16:18;;;;;;;;;;;;;;;13.43;55.67;99902.75;4361087;32;34038;-63
2022/12/27 00:18:46;;;;;;;;;;;;;;;13.53;55.22;99902.81;4345732;32;33949;-66
2022/12/27 00:21:13;;;;;;;;;;;;;;;13.75;54.81;99901.84;4362314;32;32931;-63
2022/12/27 00:23:42;;;;;;;;;;;;;;;13.55;55.42;99900.00;4356479;32;33812;-64
2022/12/27 00:26:13;;;;;;;;;;;;;;;13.73;55.00;99909.19;4355265;32;34069;-65
2022/12/27 00:28:41;;;;;;;;;;;;;;;13.67;55.15;99909.72;4358428;32;34817;-67
2022/12/27 00:31:08;;;;;;;;;;;;;;;13.70;55.22;99915.69;4358149;32;33241;-67
2022/12/27 00:33:36;;;;;;;;;;;;;;;13.34;56.83;99908.03;4356786;32;34078;-67
2022/12/27 00:36:05;;;;;;;;;;;;;;;13.56;55.84;99913.31;4352919;32;34701;-66
2022/12/27 00:38:32;;;;;;;;;;;;;;;13.30;55.74;99918.19;4354597;32;32811;-65
2022/12/27 00:41:00;;;;;;;;;;;;;;;13.12;56.68;99915.16;4353363;32;33619;-64
2022/12/27 00:43:27;;;;;;;;;;;;;;;12.83;57.87;99898.75;4356366;32;34253;-65
2022/12/27 00:45:54;;;;;;;;;;;;;;;13.07;57.11;99885.16;4351987;32;33826;-65
2022/12/27 00:48:22;;;;;;;;;;;;;;;13.08;57.13;99886.84;4356113;32;34425;-66
2022/12/27 00:50:49;;;;;;;;;;;;;;;12.97;57.40;99884.19;4357713;32;32359;-66
2022/12/27 00:53:16;;;;;;;;;;;;;;;13.41;56.19;99885.88;4354445;32;34346;-67
2022/12/27 00:55:44;;;;;;;;;;;;;;;13.61;55.08;99886.91;4354373;32;35394;-67
2022/12/27 00:58:11;;;;;;;;;;;;;;;13.44;55.51;99882.09;4350957;32;33870;-67
2022/12/27 01:00:39;;;;;;;;;;;;;;;13.71;55.24;99895.03;4353430;32;33365;-67
2022/12/27 01:03:06;;;;;;;;;;;;;;;13.28;56.03;99879.84;4344464;32;32496;-66
2022/12/27 01:05:36;;;;;;;;;;;;;;;13.48;55.82;99887.09;4357203;32;35214;-67
2022/12/27 01:08:04;;;;;;;;;;;;;;;13.28;56.09;99874.47;4357866;32;34222;-67
2022/12/27 01:10:31;;;;;;;;;;;;;;;13.45;56.07;99871.22;4356607;32;33540;-68
2022/12/27 01:13:02;;;;;;;;;;;;;;;13.52;55.54;99863.47;4349124;32;34041;-67
2022/12/27 01:15:29;;;;;;;;;;;;;;;13.75;54.99;99862.34;4356897;32;34468;-67
2022/12/27 01:17:57;;;;;;;;;;;;;;;13.54;55.58;99872.25;4354534;32;33096;-67
2022/12/27 01:20:24;;;;;;;;;;;;;;;13.66;55.18;99865.84;4355833;32;32096;-67
2022/12/27 01:22:52;;;;;;;;;;;;;;;13.42;56.04;99866.09;4357630;32;34113;-68
2022/12/27 01:25:20;;;;;;;;;;;;;;;13.64;55.17;99866.94;4354337;32;35222;-67
2022/12/27 01:27:47;;;;;;;;;;;;;;;13.41;56.04;99861.69;4355150;32;34392;-67
2022/12/27 01:30:14;;;;;;;;;;;;;;;12.64;58.10;99864.47;4355208;32;33053;-67
2022/12/27 01:32:42;;;;;;;;;;;;;;;13.26;56.73;99865.69;4354145;32;33978;-67
2022/12/27 01:35:09;;;;;;;;;;;;;;;13.25;56.40;99880.94;4350169;32;36005;-67
2022/12/27 01:37:36;;;;;;;;;;;;;;;12.78;57.82;99880.34;4354142;32;34244;-67
2022/12/27 01:40:04;;;;;;;;;;;;;;;12.66;57.89;99883.16;4354905;32;34581;-68
2022/12/27 01:45:17;;;;;;;;;;;;;;;13.49;55.63;99898.69;4360132;32;35125;-69
2022/12/27 01:47:47;;;;;;;;;;;;;;;13.38;56.12;99906.78;4358008;32;34387;-68
2022/12/27 01:50:17;;;;;;;;;;;;;;;12.74;57.90;99900.34;4356340;32;31855;-66
2022/12/27 01:52:47;;;;;;;;;;;;;;;12.97;57.26;99908.34;4345632;32;33875;-66
2022/12/27 01:55:17;;;;;;;;;;;;;;;12.96;57.54;99912.88;4354829;32;33784;-63
2022/12/27 01:57:44;;;;;;;;;;;;;;;13.30;56.24;99915.53;4358581;32;33458;-63
2022/12/27 02:00:12;;;;;;;;;;;;;;;13.16;56.84;99910.37;4347438;32;32242;-64
2022/12/27 02:02:39;;;;;;;;;;;;;;;12.86;57.72;99916.47;4358367;32;35262;-66
2022/12/27 02:05:07;;;;;;;;;;;;;;;12.62;58.98;99914.78;4359683;32;34569;-63
2022/12/27 02:07:58;;;;;;;;;;;;;;;12.76;58.29;99925.25;4345163;32;34780;-63
2022/12/27 02:10:25;;;;;;;;;;;;;;;13.15;57.16;99920.28;4342528;32;33387;-63
2022/12/27 02:12:52;;;;;;;;;;;;;;;12.90;57.94;99916.06;4358306;32;33950;-63
2022/12/27 02:15:20;;;;;;;;;;;;;;;13.30;56.84;99914.66;4352115;32;34046;-64
2022/12/27 02:17:47;;;;;;;;;;;;;;;13.52;56.31;99923.50;4357039;32;35070;-63
2022/12/27 02:20:15;;;;;;;;;;;;;;;13.58;55.84;99929.31;4359294;32;33500;-65
2022/12/27 02:25:35;;;;;;;;;;;;;;;13.45;55.90;99924.13;4330170;32;873667;-63
2022/12/27 02:28:11;;;;;;;;;;;;;;;13.32;56.40;99921.59;4357358;32;35074;-65
2022/12/27 02:30:39;;;;;;;;;;;;;;;13.19;57.02;99918.19;4355859;32;33569;-63
2022/12/27 02:33:07;;;;;;;;;;;;;;;13.09;57.29;99917.25;4354213;32;33772;-65
2022/12/27 02:35:38;;;;;;;;;;;;;;;13.32;56.76;99908.16;4352271;32;34730;-66
2022/12/27 02:38:19;;;;;;;;;;;;;;;13.51;56.24;99904.78;4352507;32;35340;-63
2022/12/27 02:55:14;;;;;;;;;;;;;;;14.29;54.09;99906.12;4359819;32;34133;-65
2022/12/27 02:57:50;;;;;;;;;;;;;;;14.39;53.60;99909.72;4359923;32;32945;-61
2022/12/27 03:03:20;;;;;;;;;;;;;;;14.42;53.27;99916.69;4357411;32;33553;-66
2022/12/27 03:09:11;;;;;;;;;;;;;;;14.14;53.63;99924.47;4354695;32;34483;-64
2022/12/27 03:17:35;;;;;;;;;;;;;;;14.02;53.10;99914.75;4354699;32;34245;-65
2022/12/27 03:25:35;;;;;;;;;;;;;;;13.79;53.52;99929.34;4346161;32;33100;-66
2022/12/27 03:33:39;;;;;;;;;;;;;;;13.94;52.83;99922.66;4346584;32;35491;-66
2022/12/27 03:39:02;;;;;;;;;;;;;;;14.30;51.66;99937.44;4356863;32;34047;-66
2022/12/27 03:44:31;;;;;;;;;;;;;;;14.29;52.04;99949.22;4359265;32;35472;-66
2022/12/27 03:46:59;;;;;;;;;;;;;;;14.42;51.48;99954.38;4350673;32;35345;-65
2022/12/27 03:49:30;;;;;;;;;;;;;;;14.52;51.11;99960.69;4356290;32;35096;-66
2022/12/27 03:52:16;;;;;;;;;;;;;;;14.52;51.01;99962.53;4354182;32;33125;-65
2022/12/27 03:54:44;;;;;;;;;;;;;;;14.52;50.65;99963.41;4355158;32;34147;-67
2022/12/27 03:57:13;;;;;;;;;;;;;;;14.30;51.33;99964.38;4350957;32;33609;-67
2022/12/27 03:59:40;;;;;;;;;;;;;;;14.20;51.37;99971.53;4356222;32;33603;-66
2022/12/27 04:02:07;;;;;;;;;;;;;;;14.04;52.02;99972.00;4361496;32;35472;-66
2022/12/27 04:04:35;;;;;;;;;;;;;;;13.97;51.81;99963.59;4356672;32;33226;-66
2022/12/27 04:07:02;;;;;;;;;;;;;;;14.07;51.69;99973.59;4358570;32;33089;-65
2022/12/27 04:34:43;;;;;;;;;;;;;;;13.75;51.65;99998.69;4359013;32;34081;-66
2022/12/27 04:37:15;;;;;;;;;;;;;;;13.45;52.62;99986.84;4356394;32;33013;-67
2022/12/27 04:54:55;;;;;;;;;;;;;;;13.28;53.16;99996.28;4360059;32;33415;-66
2022/12/27 04:56:23;;;;;;;;;;;;;;;13.07;53.73;100037.47;4359859;32;35991;-65
2022/12/27 05:04:23;;;;;;;;;;;;;;;12.67;55.14;100052.22;4350590;32;34003;-64
2022/12/27 05:06:50;;;;;;;;;;;;;;;12.30;56.50;100055.09;4357752;32;33616;-65
2022/12/27 05:14:49;;;;;;;;;;;;;;;12.05;57.39;100061.47;4355623;32;33886;-67
2022/12/27 05:17:17;;;;;;;;;;;;;;;11.81;58.27;100063.28;4359730;32;35136;-67
2022/12/27 05:19:44;;;;;;;;;;;;;;;11.77;58.33;100059.97;4360288;32;35020;-66
2022/12/27 05:27:44;;;;;;;;;;;;;;;11.32;59.92;100073.12;4361999;32;34381;-68
2022/12/27 05:30:11;;;;;;;;;;;;;;;10.58;61.97;100074.81;4359000;32;34208;-69
2022/12/27 05:32:39;;;;;;;;;;;;;;;11.10;60.70;100091.72;4358651;32;33424;-68
2022/12/27 05:35:06;;;;;;;;;;;;;;;11.26;60.07;100094.16;4357062;32;34458;-69
2022/12/27 05:37:33;;;;;;;;;;;;;;;11.04;60.38;100102.84;4361931;32;34352;-68
2022/12/27 05:40:01;;;;;;;;;;;;;;;11.23;59.79;100115.81;4360906;32;33188;-68
2022/12/27 05:42:28;;;;;;;;;;;;;;;10.92;60.54;100109.97;4361816;32;33424;-67
2022/12/27 05:44:56;;;;;;;;;;;;;;;11.01;60.37;100109.31;4360872;32;33850;-68
2022/12/27 05:47:23;;;;;;;;;;;;;;;11.09;60.26;100112.28;4361169;32;33697;-68
2022/12/27 05:49:51;;;;;;;;;;;;;;;10.89;60.51;100115.53;4361894;32;34858;-69
2022/12/27 05:52:18;;;;;;;;;;;;;;;10.78;60.84;100121.59;4360412;32;34463;-68
2022/12/27 05:54:45;;;;;;;;;;;;;;;11.07;60.07;100122.25;4358821;32;32708;-69
2022/12/27 05:57:13;;;;;;;;;;;;;;;11.15;60.04;100133.28;4361307;32;34099;-68
2022/12/27 05:59:40;;;;;;;;;;;;;;;11.36;58.92;100146.09;4360540;32;34655;-69
2022/12/27 06:02:07;;;;;;;;;;;;;;;11.29;59.03;100152.87;4358847;32;34037;-67
2022/12/27 06:04:35;;;;;;;;;;;;;;;11.35;58.62;100145.25;4359589;32;34261;-67
2022/12/27 06:07:02;;;;;;;;;;;;;;;11.29;58.85;100147.53;4347988;32;33274;-69
2022/12/27 06:09:29;;;;;;;;;;;;;;;11.41;58.72;100152.84;4344543;32;33828;-68
2022/12/27 06:11:57;;;;;;;;;;;;;;;11.34;58.70;100154.28;4361440;32;33752;-67
2022/12/27 06:14:24;;;;;;;;;;;;;;;11.27;59.70;100165.50;4358936;32;34226;-69
2022/12/27 06:16:51;;;;;;;;;;;;;;;11.56;57.73;100166.16;4358594;32;34117;-70
2022/12/27 06:19:19;;;;;;;;;;;;;;;11.16;58.87;100166.28;4360965;32;34168;-69
2022/12/27 06:21:46;;;;;;;;;;;;;;;11.52;57.87;100172.66;4362356;32;33152;-68
2022/12/27 06:24:14;;;;;;;;;;;;;;;11.54;57.23;100160.88;4347001;32;34461;-71
2022/12/27 06:26:41;;;;;;;;;;;;;;;11.43;57.48;100169.69;4361017;32;32606;-69
2022/12/27 06:29:10;;;;;;;;;;;;;;;10.86;59.25;100180.00;4353035;32;32989;-66
2022/12/27 06:31:37;;;;;;;;;;;;;;;10.87;59.06;100185.25;4356283;32;34240;-67
2022/12/27 06:34:05;;;;;;;;;;;;;;;10.48;60.17;100187.00;4357012;32;33621;-67
2022/12/27 06:36:32;;;;;;;;;;;;;;;10.85;58.99;100186.31;4355968;32;36562;-66
2022/12/27 06:38:59;;;;;;;;;;;;;;;10.85;59.59;100197.91;4358280;32;34237;-68
2022/12/27 06:41:27;;;;;;;;;;;;;;;10.65;60.15;100201.06;4357971;32;32191;-67
2022/12/27 06:43:55;;;;;;;;;;;;;;;10.80;59.04;100205.38;4357205;32;33959;-67
2022/12/27 06:46:23;;;;;;;;;;;;;;;11.09;58.27;100208.72;4357991;32;34380;-67
2022/12/27 06:48:51;;;;;;;;;;;;;;;10.59;59.52;100201.47;4360604;32;34375;-66
2022/12/27 06:51:18;;;;;;;;;;;;;;;10.55;59.82;100210.69;4358481;32;34336;-65
2022/12/27 06:53:46;;;;;;;;;;;;;;;10.87;58.67;100208.50;4356426;32;34385;-66
2022/12/27 06:56:17;;;;;;;;;;;;;;;11.41;56.65;100213.66;4360492;32;32977;-66
2022/12/27 06:58:45;;;;;;;;;;;;;;;11.86;55.75;100219.41;4358873;32;34387;-66
2022/12/27 07:01:12;;;;;;;;;;;;;;;12.99;52.29;100228.84;4359880;32;34675;-70
2022/12/27 07:03:40;;;;;;;;;;;;;;;12.91;51.92;100223.22;4357732;32;34696;-69
2022/12/27 07:06:08;;;;;;;;;;;;;;;12.59;52.69;100227.37;4360376;32;32777;-66
2022/12/27 07:08:35;;;;;;;;;;;;;;;13.58;49.83;100233.22;4358881;32;34367;-67
2022/12/27 07:11:04;;;;;;;;;;;;;;;14.17;48.44;100227.53;4358295;32;34620;-67
2022/12/27 07:13:42;;;;;;;;;;;;;;;14.75;46.84;100225.41;4356764;32;34097;-66
2022/12/27 07:16:12;;;;;;;;;;;;;;;14.94;46.04;100222.00;4359170;32;34794;-67
2022/12/27 07:18:39;;;;;;;;;;;;;;;13.94;48.07;100227.59;4360563;32;34460;-66
2022/12/27 07:21:07;;;;;;;;;;;;;;;14.21;47.60;100229.00;4357230;32;34647;-66
2022/12/27 07:23:34;;;;;;;;;;;;;;;15.30;44.83;100227.91;4358557;32;34853;-68
2022/12/27 07:26:02;;;;;;;;;;;;;;;15.99;43.36;100222.72;4357482;32;34896;-66
2022/12/27 07:28:30;;;;;;;;;;;;;;;15.29;45.00;100224.34;4359121;32;34251;-66
2022/12/27 07:30:57;;;;;;;;;;;;;;;15.77;43.40;100222.91;4357185;32;33585;-66
2022/12/27 07:33:24;;;;;;;;;;;;;;;15.77;42.96;100222.91;4356002;32;34021;-65
2022/12/27 07:35:58;;;;;;;;;;;;;;;16.79;40.73;100217.25;4357250;32;35171;-68
2022/12/27 07:38:26;;;;;;;;;;;;;;;17.35;39.03;100209.19;4358095;32;32559;-68
2022/12/27 07:40:53;;;;;;;;;;;;;;;18.05;37.65;100215.06;4342056;32;32038;-68
2022/12/27 07:43:21;;;;;;;;;;;;;;;17.99;37.52;100231.06;4356172;32;34204;-67
2022/12/27 07:45:48;;;;;;;;;;;;;;;17.82;37.25;100238.13;4359077;32;35340;-67
2022/12/27 07:48:15;;;;;;;;;;;;;;;18.69;36.04;100247.59;4358685;32;35418;-68
2022/12/27 07:50:43;;;;;;;;;;;;;;;18.63;35.69;100240.91;4359939;32;33608;-67
2022/12/27 07:53:10;;;;;;;;;;;;;;;18.24;36.66;100251.19;4360850;32;34234;-67
2022/12/27 07:55:38;;;;;;;;;;;;;;;16.83;39.02;100264.66;4360427;32;33030;-66
2022/12/27 07:58:05;;;;;;;;;;;;;;;17.35;38.52;100276.00;4359683;32;35532;-68
2022/12/27 08:00:32;;;;;;;;;;;;;;;16.88;39.54;100275.88;4358001;32;32012;-66
2022/12/27 08:03:00;;;;;;;;;;;;;;;16.29;40.19;100275.78;4358599;32;34243;-66
2022/12/27 08:05:27;;;;;;;;;;;;;;;16.40;39.99;100287.47;4356519;32;34015;-68
2022/12/27 08:07:56;;;;;;;;;;;;;;;16.40;39.57;100288.31;4360085;32;34481;-68
2022/12/27 08:10:23;;;;;;;;;;;;;;;16.09;40.23;100302.88;4358901;32;33587;-67
2022/12/27 08:12:50;;;;;;;;;;;;;;;16.39;39.44;100302.81;4357956;32;34032;-69
2022/12/27 08:15:18;;;;;;;;;;;;;;;14.61;42.91;100320.03;4354380;32;32949;-66
2022/12/27 08:17:45;;;;;;;;;;;;;;;15.03;42.25;100318.28;4356821;32;34185;-67
2022/12/27 08:20:13;;;;;;;;;;;;;;;14.89;42.83;100318.56;4359810;32;34457;-67
2022/12/27 08:22:40;;;;;;;;;;;;;;;14.58;43.70;100314.87;4358713;32;32666;-66
2022/12/27 08:25:08;;;;;;;;;;;;;;;16.05;40.85;100313.97;4359613;32;33960;-67
2022/12/27 08:27:35;;;;;;;;;;;;;;;16.45;40.09;100318.47;4351399;32;33986;-67
2022/12/27 08:30:02;;;;;;;;;;;;;;;16.57;39.49;100313.81;4361280;32;33148;-68
2022/12/27 08:32:30;;;;;;;;;;;;;;;16.50;39.40;100318.06;4358064;32;32934;-67
2022/12/27 08:34:57;;;;;;;;;;;;;;;15.72;41.16;100325.84;4358750;32;35201;-67
2022/12/27 08:37:44;;;;;;;;;;;;;;;16.65;39.75;100332.03;4358006;32;34451;-67
2022/12/27 08:40:12;;;;;;;;;;;;;;;16.29;40.25;100346.00;4360360;32;34454;-67
2022/12/27 08:42:39;;;;;;;;;;;;;;;16.27;40.13;100347.12;4358639;32;34352;-67
2022/12/27 08:45:07;;;;;;;;;;;;;;;16.10;39.83;100358.59;4358414;32;34400;-67
2022/12/27 08:47:34;;;;;;;;;;;;;;;15.66;41.47;100347.09;4358368;32;35309;-67
2022/12/27 08:50:01;;;;;;;;;;;;;;;15.80;40.42;100349.50;4356244;32;33234;-67
2022/12/27 08:52:29;;;;;;;;;;;;;;;16.24;39.78;100353.69;4358705;32;34895;-67
2022/12/27 08:54:56;;;;;;;;;;;;;;;14.52;42.59;100361.16;4352929;32;33693;-69
2022/12/27 08:57:23;;;;;;;;;;;;;;;13.78;43.38;100369.72;4358469;32;33218;-67
2022/12/27 08:59:50;;;;;;;;;;;;;;;13.56;43.30;100373.19;4359106;32;33816;-68
2022/12/27 09:02:17;;;;;;;;;;;;;;;13.43;44.21;100364.38;4355772;32;33930;-67
2022/12/27 09:04:45;;;;;;;;;;;;;;;14.41;41.73;100362.87;4356787;32;34107;-67
2022/12/27 09:07:13;;;;;;;;;;;;;;;14.27;41.07;100360.41;4350677;32;35379;-67
2022/12/27 09:09:41;;;;;;;;;;;;;;;14.18;41.55;100367.38;4357902;32;32202;-67
2022/12/27 09:12:08;;;;;;;;;;;;;;;16.34;36.89;100360.94;4354174;32;32757;-68
2022/12/27 09:14:35;;;;;;;;;;;;;;;15.21;38.44;100372.47;4358139;32;34990;-67
2022/12/27 09:17:05;;;;;;;;;;;;;;;14.16;39.97;100368.53;4358046;32;34046;-68
2022/12/27 09:19:32;;;;;;;;;;;;;;;14.05;40.30;100372.03;4359020;32;33610;-67
2022/12/27 09:21:59;;;;;;;;;;;;;;;14.36;39.62;100372.28;4360208;32;34567;-68
2022/12/27 09:24:26;;;;;;;;;;;;;;;15.82;36.57;100367.25;4357501;32;34380;-68
2022/12/27 09:26:53;;;;;;;;;;;;;;;15.91;34.92;100373.69;4357280;32;34164;-68
2022/12/27 09:29:21;;;;;;;;;;;;;;;16.80;34.12;100387.44;4354862;32;33970;-68
2022/12/27 09:31:48;;;;;;;;;;;;;;;15.56;35.07;100369.47;4360304;32;34066;-68
2022/12/27 09:34:16;;;;;;;;;;;;;;;14.74;36.54;100393.47;4356893;32;33879;-67
2022/12/27 09:36:43;;;;;;;;;;;;;;;14.53;36.99;100404.13;4358126;32;34367;-68
2022/12/27 09:39:12;;;;;;;;;;;;;;;13.95;36.86;100392.59;4357444;32;32487;-66
2022/12/27 09:41:42;;;;;;;;;;;;;;;13.66;36.63;100402.94;4358936;32;33927;-68
2022/12/27 09:44:35;;;;;;;;;;;;;;;13.75;36.60;100397.69;4355847;32;34294;-67
2022/12/27 09:47:21;;;;;;;;;;;;;;;13.69;36.11;100417.00;4354667;32;34767;-68
2022/12/27 09:50:01;;;;;;;;;;;;;;;14.62;34.62;100416.87;4359496;32;34061;-67
2022/12/27 09:52:31;;;;;;;;;;;;;;;14.46;34.68;100410.97;4358656;32;35123;-67
2022/12/27 09:54:59;;;;;;;;;;;;;;;13.74;35.54;100428.28;4360303;32;34449;-68
2022/12/27 09:57:40;;;;;;;;;;;;;;;13.63;35.23;100422.00;4354549;32;34191;-67
2022/12/27 10:00:22;;;;;;;;;;;;;;;14.97;32.77;100414.97;4361744;32;34677;-67
2022/12/27 10:03:03;;;;;;;;;;;;;;;14.84;33.25;100424.06;4357990;32;33129;-67
2022/12/27 10:05:31;;;;;;;;;;;;;;;14.28;32.81;100425.91;4356515;32;34516;-67
2022/12/27 10:07:59;;;;;;;;;;;;;;;14.03;33.87;100435.94;4353538;32;34475;-67
2022/12/27 10:10:45;;;;;;;;;;;;;;;13.54;33.74;100425.38;4355359;32;33738;-67
2022/12/27 10:13:18;;;;;;;;;;;;;;;13.30;33.45;100438.88;4353195;32;32589;-67
2022/12/27 10:15:48;;;;;;;;;;;;;;;13.31;34.05;100438.75;4360838;32;35345;-67
2022/12/27 10:18:24;;;;;;;;;;;;;;;13.81;33.33;100433.19;4360164;32;34675;-66
2022/12/27 10:21:04;;;;;;;;;;;;;;;13.54;33.51;100458.50;4359936;32;33392;-67
2022/12/27 10:23:31;;;;;;;;;;;;;;;14.07;33.22;100439.22;4347835;32;33017;-67
2022/12/27 10:26:00;;;;;;;;;;;;;;;15.84;30.19;100435.47;4359260;32;33972;-69
2022/12/27 10:28:39;;;;;;;;;;;;;;;16.32;29.60;100442.16;4357593;32;34356;-68
2022/12/27 10:31:13;;;;;;;;;;;;;;;16.35;29.71;100447.28;4341017;32;33619;-68
2022/12/27 10:33:42;;;;;;;;;;;;;;;16.91;29.30;100444.09;4356808;32;33207;-67
2022/12/27 10:36:14;;;;;;;;;;;;;;;16.47;29.41;100445.34;4356851;32;35416;-69
2022/12/27 10:38:41;;;;;;;;;;;;;;;17.04;29.24;100438.41;4336469;32;33189;-66
2022/12/27 10:41:24;;;;;;;;;;;;;;;17.36;28.90;100430.06;4359585;32;32866;-67
2022/12/27 10:43:52;;;;;;;;;;;;;;;16.51;30.45;100435.97;4351856;32;35344;-67
2022/12/27 10:46:24;;;;;;;;;;;;;;;15.11;32.88;100434.41;4357947;32;37060;-67
2022/12/27 10:49:05;;;;;;;;;;;;;;;15.27;32.82;100436.66;4348617;32;34263;-67
2022/12/27 10:51:49;;;;;;;;;;;;;;;14.93;33.41;100449.41;4355699;32;33613;-69
2022/12/27 10:54:20;;;;;;;;;;;;;;;15.78;31.83;100438.69;4358563;32;35418;-67
2022/12/27 10:56:47;;;;;;;;;;;;;;;15.41;32.51;100451.72;4350301;32;34443;-67
2022/12/27 10:59:22;;;;;;;;;;;;;;;15.58;32.22;100445.75;4347358;32;35572;-67
2022/12/27 11:01:59;;;;;;;;;;;;;;;17.37;29.36;100448.03;4360056;32;33873;-71
2022/12/27 11:04:27;;;;;;;;;;;;;;;17.89;28.45;100454.03;4350812;32;35254;-69
2022/12/27 11:06:58;;;;;;;;;;;;;;;18.41;27.46;100455.47;4355959;32;34835;-69
2022/12/27 11:09:26;;;;;;;;;;;;;;;17.10;28.31;100459.50;4360129;32;34271;-68
2022/12/27 11:12:11;;;;;;;;;;;;;;;16.70;28.80;100478.44;4357481;32;34238;-69
2022/12/27 11:14:39;;;;;;;;;;;;;;;17.03;28.72;100471.88;4359109;32;33902;-68
2022/12/27 11:17:08;;;;;;;;;;;;;;;15.70;30.65;100457.37;4347259;32;35081;-68
2022/12/27 11:19:35;;;;;;;;;;;;;;;17.52;28.59;100451.16;4354073;32;34293;-68
2022/12/27 11:22:05;;;;;;;;;;;;;;;17.31;29.47;100448.59;4358428;32;34076;-69
2022/12/27 11:24:32;;;;;;;;;;;;;;;18.81;27.81;100452.47;4353677;32;34950;-68
2022/12/27 11:27:00;;;;;;;;;;;;;;;18.73;28.33;100457.78;4343813;32;34319;-68
2022/12/27 11:29:27;;;;;;;;;;;;;;;17.39;30.34;100467.66;4354669;32;34591;-69
2022/12/27 11:31:55;;;;;;;;;;;;;;;17.03;31.20;100471.03;4345329;32;33473;-68
2022/12/27 11:34:32;;;;;;;;;;;;;;;15.98;33.14;100457.72;4346516;32;34326;-67
2022/12/27 11:37:09;;;;;;;;;;;;;;;14.97;35.15;100460.78;4355576;32;34558;-68
2022/12/27 11:39:36;;;;;;;;;;;;;;;14.46;35.75;100456.75;4340317;32;34444;-68
2022/12/27 11:42:09;;;;;;;;;;;;;;;14.30;36.57;100459.81;4358932;32;33706;-67
2022/12/27 11:44:36;;;;;;;;;;;;;;;13.20;38.04;100461.03;4353973;32;33775;-67
2022/12/27 11:47:04;;;;;;;;;;;;;;;12.27;38.01;100468.66;4347671;32;34428;-68
2022/12/27 11:49:36;;;;;;;;;;;;;;;12.82;38.12;100478.13;4358244;32;33291;-70
2022/12/27 11:52:04;;;;;;;;;;;;;;;12.53;37.19;100476.69;4360233;32;33563;-68
2022/12/27 11:54:46;;;;;;;;;;;;;;;11.65;37.64;100481.84;4357374;32;34386;-69
2022/12/27 11:57:32;;;;;;;;;;;;;;;11.59;37.72;100477.78;4356893;32;34684;-70
2022/12/27 12:00:14;;;;;;;;;;;;;;;11.03;39.13;100486.88;4359894;32;34400;-70
2022/12/27 12:02:42;;;;;;;;;;;;;;;11.10;39.91;100480.16;4359722;32;31751;-69
2022/12/27 12:05:24;;;;;;;;;;;;;;;11.34;39.09;100456.25;4358856;32;32798;-70
2022/12/27 12:08:10;;;;;;;;;;;;;;;11.13;39.20;100478.13;4362319;32;34350;-69
2022/12/27 12:10:56;;;;;;;;;;;;;;;11.13;39.67;100474.59;4356148;32;33846;-70
2022/12/27 12:13:36;;;;;;;;;;;;;;;10.24;39.38;100472.19;4354582;32;32492;-68
2022/12/27 12:16:22;;;;;;;;;;;;;;;10.57;39.59;100468.41;4356799;32;34222;-69
2022/12/27 12:19:08;;;;;;;;;;;;;;;10.83;38.20;100464.91;4360251;32;35284;-67
2022/12/27 12:21:39;;;;;;;;;;;;;;;10.11;38.43;100466.75;4360650;32;34519;-69
2022/12/27 12:24:06;;;;;;;;;;;;;;;9.87;38.19;100462.91;4344805;32;33430;-67
2022/12/27 12:26:43;;;;;;;;;;;;;;;9.93;38.13;100471.41;4360214;32;35220;-68
2022/12/27 12:29:30;;;;;;;;;;;;;;;10.00;38.44;100467.41;4346160;32;34077;-68
2022/12/27 12:32:00;;;;;;;;;;;;;;;10.23;38.24;100459.78;4359280;32;33817;-69
2022/12/27 12:34:36;;;;;;;;;;;;;;;10.10;38.51;100448.13;4359003;32;33875;-68
2022/12/27 12:37:22;;;;;;;;;;;;;;;9.81;38.88;100442.72;4360146;32;34179;-70
2022/12/27 12:39:52;;;;;;;;;;;;;;;9.27;39.11;100458.41;4360549;32;34765;-69
2022/12/27 12:42:36;;;;;;;;;;;;;;;9.36;39.95;100457.87;4358319;32;33737;-68
2022/12/27 12:45:18;;;;;;;;;;;;;;;9.31;39.82;100474.19;4344741;32;33713;-68
2022/12/27 12:47:50;;;;;;;;;;;;;;;9.56;38.98;100480.75;4359693;32;34188;-68
2022/12/27 12:50:24;;;;;;;;;;;;;;;9.53;39.90;100481.81;4350515;32;34197;-67
2022/12/27 12:52:55;;;;;;;;;;;;;;;9.37;39.66;100480.09;4359373;32;34382;-68
2022/12/27 12:55:30;;;;;;;;;;;;;;;8.77;40.14;100496.84;4358118;32;33189;-68
2022/12/27 12:58:27;;;;;;;;;;;;;;;8.84;40.37;100495.56;4360763;32;33936;-67
2022/12/27 13:01:15;;;;;;;;;;;;;;;8.81;40.17;100503.75;4356112;32;33070;-69
2022/12/27 13:04:02;;;;;;;;;;;;;;;9.24;39.57;100509.31;4358366;32;33245;-67
2022/12/27 13:06:43;;;;;;;;;;;;;;;9.32;39.43;100515.97;4356037;32;32369;-67
2022/12/27 13:09:16;;;;;;;;;;;;;;;9.03;39.50;100512.28;4358477;32;33877;-69
2022/12/27 13:12:04;;;;;;;;;;;;;;;9.16;39.91;100516.94;4348648;32;34934;-69
2022/12/27 13:14:43;;;;;;;;;;;;;;;9.37;39.26;100522.84;4355710;32;34750;-67
2022/12/27 13:17:29;;;;;;;;;;;;;;;9.03;39.54;100519.44;4359897;32;33630;-66
2022/12/27 13:20:16;;;;;;;;;;;;;;;8.50;40.45;100504.56;4353164;32;35013;-70
2022/12/27 13:23:03;;;;;;;;;;;;;;;9.04;39.58;100497.13;4360095;32;34908;-68
2022/12/27 13:25:50;;;;;;;;;;;;;;;9.04;38.92;100508.66;4356605;32;35590;-67
2022/12/27 13:28:23;;;;;;;;;;;;;;;8.81;39.42;100506.41;4356582;32;33571;-67
2022/12/27 13:31:09;;;;;;;;;;;;;;;9.14;38.62;100519.66;4359628;32;33780;-68
2022/12/27 13:34:00;;;;;;;;;;;;;;;8.87;39.25;100532.78;4354348;32;34378;-67
2022/12/27 13:36:33;;;;;;;;;;;;;;;8.79;39.74;100534.97;4350612;32;34272;-68
2022/12/27 13:39:07;;;;;;;;;;;;;;;8.88;40.69;100537.16;4360107;32;32974;-66
2022/12/27 13:41:46;;;;;;;;;;;;;;;9.27;39.74;100531.38;4351849;32;34076;-67
2022/12/27 13:44:27;;;;;;;;;;;;;;;8.90;40.49;100540.62;4355945;32;34138;-67
2022/12/27 13:46:54;;;;;;;;;;;;;;;8.67;41.40;100549.88;4364266;32;35350;-68
2022/12/27 13:49:40;;;;;;;;;;;;;;;8.61;41.53;100550.22;4354184;32;34117;-67
2022/12/27 13:52:10;;;;;;;;;;;;;;;8.69;41.48;100561.31;4362193;32;34164;-68
2022/12/27 13:54:40;;;;;;;;;;;;;;;8.69;41.03;100555.13;4359838;32;32856;-68
2022/12/27 13:57:29;;;;;;;;;;;;;;;8.25;41.96;100548.53;4359970;32;34276;-67
2022/12/27 14:00:00;;;;;;;;;;;;;;;8.63;41.33;100551.84;4346245;32;33542;-66
2022/12/27 14:02:30;;;;;;;;;;;;;;;8.92;40.85;100567.22;4361965;32;34758;-66
2022/12/27 14:05:01;;;;;;;;;;;;;;;8.75;41.82;100584.16;4359894;32;34264;-67
2022/12/27 14:07:31;;;;;;;;;;;;;;;9.07;41.25;100593.94;4362074;32;33061;-68
2022/12/27 14:10:05;;;;;;;;;;;;;;;8.98;39.80;100599.78;4348869;32;34237;-67
2022/12/27 14:12:35;;;;;;;;;;;;;;;9.35;39.96;100608.44;4359135;32;32896;-67
2022/12/27 14:15:03;;;;;;;;;;;;;;;9.07;40.33;100617.97;4361137;32;35423;-66
2022/12/27 14:17:33;;;;;;;;;;;;;;;9.13;39.58;100618.59;4362358;32;34881;-66
2022/12/27 14:20:03;;;;;;;;;;;;;;;8.33;42.48;100638.78;4356736;32;34590;-66
2022/12/27 14:22:49;;;;;;;;;;;;;;;8.98;41.28;100633.63;4355190;32;34345;-67
2022/12/27 14:25:26;;;;;;;;;;;;;;;8.49;42.34;100637.09;4356669;32;34718;-66
2022/12/27 14:28:12;;;;;;;;;;;;;;;9.50;39.63;100637.00;4362266;32;35105;-68
2022/12/27 14:30:39;;;;;;;;;;;;;;;9.62;39.07;100639.91;4362017;32;33539;-66
2022/12/27 14:33:26;;;;;;;;;;;;;;;9.47;39.72;100642.50;4361239;32;34695;-66
2022/12/27 14:36:12;;;;;;;;;;;;;;;9.31;40.43;100644.31;4361417;32;34955;-67
2022/12/27 14:38:58;;;;;;;;;;;;;;;9.69;38.77;100649.28;4360090;32;34045;-66
2022/12/27 14:41:41;;;;;;;;;;;;;;;9.87;38.90;100642.91;4355559;32;33663;-66
2022/12/27 14:44:15;;;;;;;;;;;;;;;9.33;39.46;100647.72;4360573;32;34156;-67
2022/12/27 14:46:42;;;;;;;;;;;;;;;9.43;39.97;100650.75;4362329;32;34279;-65